JCA weather

Jackson County Airport
Jefferson, Georgia, United States

Public forecast

Using degrees Fahrenheit for public forecast. Weather courtesy of forecast.io.

METAR (pilot weather report)

Retrieved 2019/08/25 02:30 UTC (0 seconds ago):

KJCA 250230Z AUTO 09011G17KT 10SM OVC017 21/18 A3014 RMK AO2 T02100177

TAF (pilot weather forecast)

Forecast is more than 12 hours old.

Closest forecast is Athens Ben Epps Airport, 17.9 nm (33.1 km) SE. Retrieved 2019/08/24 00:39 UTC (1 day ago):

TAF KAHN 242337Z 2500/2524 08010KT P6SM VCSH SCT017 BKN021 FM250500 06010KT P6SM OVC009 FM251000 05009KT 6SM -DZ BR OVC005 FM251500 06009KT P6SM VCSH OVC012 FM251900 07008KT P6SM VCSH BKN025